Time;durP1;ratioP1;P1;durP2;ratioP2;P2;SDS_P1;SDS_P2;PMS_P1;PMS_P2;Temp;Humidity;BMP_temperature;BMP_pressure;BME280_temperature;BME280_humidity;BME280_pressure;Samples;Min_cycle;Max_cycle;Signal;HPM_P1;HPM_P2
2022/06/16 00:00:05;;;;;;;;;16.00;14.50;;;;;;;;5140206;27;11733;-81
2022/06/16 00:02:30;;;;;;;;;16.00;15.00;;;;;;;;5139844;27;11455;-81
2022/06/16 00:04:55;;;;;;;;;13.75;13.75;;;;;;;;5140572;27;9386;-81
2022/06/16 00:07:23;;;;;;;;;15.33;15.33;;;;;;;;5140165;27;11424;-79
2022/06/16 00:09:48;;;;;;;;;16.75;16.00;;;;;;;;5140316;27;10395;-78
2022/06/16 00:12:13;;;;;;;;;13.25;13.25;;;;;;;;5139916;27;11359;-76
2022/06/16 00:14:38;;;;;;;;;19.00;16.00;;;;;;;;5139527;27;11431;-77
2022/06/16 00:17:04;;;;;;;;;15.00;14.00;;;;;;;;5140894;27;11336;-78
2022/06/16 00:19:29;;;;;;;;;14.25;14.00;;;;;;;;5141010;27;9067;-77
2022/06/16 00:21:55;;;;;;;;;15.75;14.75;;;;;;;;5140401;27;9028;-77
2022/06/16 00:24:26;;;;;;;;;16.00;15.00;;;;;;;;5140014;27;11550;-78
2022/06/16 00:26:51;;;;;;;;;15.00;14.00;;;;;;;;5138312;27;13359;-80
2022/06/16 00:29:17;;;;;;;;;14.00;13.50;;;;;;;;5138291;27;10520;-80
2022/06/16 00:31:42;;;;;;;;;13.25;12.25;;;;;;;;5139598;27;11389;-81
2022/06/16 00:34:07;;;;;;;;;13.75;13.75;;;;;;;;5138132;27;11592;-77
2022/06/16 00:36:34;;;;;;;;;15.00;15.00;;;;;;;;5138412;27;9574;-88
2022/06/16 00:38:59;;;;;;;;;14.50;13.50;;;;;;;;5136162;27;11518;-84
2022/06/16 00:41:25;;;;;;;;;15.00;14.25;;;;;;;;5137376;27;11625;-85
2022/06/16 00:43:50;;;;;;;;;15.00;13.75;;;;;;;;5137276;27;11562;-86
2022/06/16 00:46:17;;;;;;;;;15.00;15.00;;;;;;;;5137623;27;9561;-84
2022/06/16 00:48:43;;;;;;;;;13.75;13.75;;;;;;;;5137798;27;8949;-85
2022/06/16 00:51:11;;;;;;;;;14.75;14.25;;;;;;;;5141253;27;11528;-85
2022/06/16 00:53:38;;;;;;;;;16.25;15.00;;;;;;;;5141471;27;10427;-84
2022/06/16 00:56:04;;;;;;;;;16.25;14.75;;;;;;;;5139889;27;12191;-85
2022/06/16 00:58:30;;;;;;;;;15.25;14.00;;;;;;;;5141292;27;9694;-85
2022/06/16 01:00:55;;;;;;;;;14.25;14.00;;;;;;;;5141506;27;11948;-86
2022/06/16 01:06:16;;;;;;;;;14.00;14.00;;;;;;;;5140904;27;10554;-85
2022/06/16 01:08:42;;;;;;;;;15.25;11.00;;;;;;;;5141537;27;10488;-84
2022/06/16 01:11:10;;;;;;;;;13.50;13.00;;;;;;;;5140866;27;10387;-85
2022/06/16 01:13:41;;;;;;;;;16.50;16.00;;;;;;;;5141676;27;10467;-85
2022/06/16 01:16:21;;;;;;;;;12.50;12.00;;;;;;;;5138645;27;10049;-85
2022/06/16 01:18:59;;;;;;;;;14.50;13.25;;;;;;;;5138691;27;10679;-85
2022/06/16 01:21:27;;;;;;;;;13.75;13.75;;;;;;;;5140445;27;11551;-84
2022/06/16 01:24:10;;;;;;;;;12.25;12.25;;;;;;;;5140914;27;10421;-84
2022/06/16 01:26:35;;;;;;;;;13.75;12.75;;;;;;;;5139672;27;10493;-83
2022/06/16 01:29:10;;;;;;;;;14.75;13.50;;;;;;;;5141307;27;10566;-83
2022/06/16 01:31:54;;;;;;;;;16.75;13.00;;;;;;;;5139559;27;14208;-85
2022/06/16 01:34:19;;;;;;;;;14.75;14.00;;;;;;;;5137964;27;15097;-86
2022/06/16 01:36:51;;;;;;;;;16.25;15.50;;;;;;;;5140631;27;9815;-87
2022/06/16 01:39:21;;;;;;;;;16.00;15.00;;;;;;;;5140972;27;12197;-82
2022/06/16 01:41:46;;;;;;;;;12.75;12.75;;;;;;;;5138332;27;9639;-84
2022/06/16 01:44:12;;;;;;;;;12.75;12.75;;;;;;;;5140816;27;11361;-83
2022/06/16 01:46:39;;;;;;;;;16.00;14.75;;;;;;;;5140901;27;8838;-85
2022/06/16 01:49:12;;;;;;;;;16.25;15.25;;;;;;;;5142222;27;10465;-84
2022/06/16 01:51:40;;;;;;;;;13.00;13.00;;;;;;;;5141735;27;11001;-85
2022/06/16 01:54:15;;;;;;;;;15.75;14.00;;;;;;;;5141787;27;11431;-84
2022/06/16 01:56:41;;;;;;;;;14.25;13.00;;;;;;;;5142428;27;10608;-84
2022/06/16 01:59:12;;;;;;;;;14.00;14.00;;;;;;;;5141880;27;9695;-84
2022/06/16 02:01:39;;;;;;;;;15.75;14.75;;;;;;;;5141789;27;9758;-84
2022/06/16 02:04:09;;;;;;;;;14.25;13.00;;;;;;;;5141703;27;11687;-84
2022/06/16 02:06:37;;;;;;;;;15.00;14.50;;;;;;;;5142189;27;11440;-84
2022/06/16 02:09:07;;;;;;;;;18.00;15.25;;;;;;;;5141598;27;11595;-86
2022/06/16 02:11:33;;;;;;;;;14.75;14.00;;;;;;;;5141147;27;11691;-85
2022/06/16 02:14:18;;;;;;;;;15.00;13.25;;;;;;;;5140929;27;11922;-85
2022/06/16 02:16:44;;;;;;;;;16.25;14.00;;;;;;;;5141354;27;11698;-85
2022/06/16 02:19:12;;;;;;;;;14.75;14.75;;;;;;;;5142061;27;11771;-84
2022/06/16 02:21:39;;;;;;;;;14.50;13.50;;;;;;;;5141083;27;11512;-84
2022/06/16 02:24:06;;;;;;;;;15.50;13.50;;;;;;;;5142058;27;10432;-85
2022/06/16 02:26:32;;;;;;;;;17.00;14.50;;;;;;;;5142125;27;9759;-83
2022/06/16 02:28:59;;;;;;;;;13.75;13.75;;;;;;;;5141138;27;11377;-84
2022/06/16 02:31:30;;;;;;;;;15.00;14.00;;;;;;;;5141547;27;11445;-84
2022/06/16 02:33:55;;;;;;;;;18.75;15.50;;;;;;;;5140988;27;11630;-84
2022/06/16 02:36:21;;;;;;;;;17.25;15.75;;;;;;;;5141495;27;11763;-84
2022/06/16 02:39:01;;;;;;;;;16.00;16.00;;;;;;;;5141366;27;11363;-85
2022/06/16 02:41:28;;;;;;;;;15.00;14.00;;;;;;;;5140787;27;11623;-85
2022/06/16 02:44:00;;;;;;;;;15.25;14.75;;;;;;;;5139243;27;10018;-85
2022/06/16 02:46:44;;;;;;;;;15.50;14.50;;;;;;;;5141222;27;11184;-84
2022/06/16 02:49:16;;;;;;;;;15.25;15.25;;;;;;;;5141617;27;10230;-86
2022/06/16 02:52:00;;;;;;;;;16.25;16.25;;;;;;;;5141317;27;10480;-86
2022/06/16 02:54:43;;;;;;;;;14.50;14.25;;;;;;;;5141572;27;10421;-84
2022/06/16 02:57:15;;;;;;;;;16.00;16.00;;;;;;;;5140114;27;12870;-86
2022/06/16 02:59:42;;;;;;;;;16.00;15.00;;;;;;;;5141411;27;11680;-88
2022/06/16 03:02:15;;;;;;;;;15.25;14.00;;;;;;;;5140264;27;10108;-88
2022/06/16 03:04:42;;;;;;;;;15.50;14.50;;;;;;;;5141389;27;10581;-88
2022/06/16 03:07:10;;;;;;;;;15.75;14.00;;;;;;;;5140680;27;10153;-87
2022/06/16 03:09:37;;;;;;;;;15.25;14.00;;;;;;;;5141150;27;10256;-88
2022/06/16 03:12:02;;;;;;;;;13.00;12.50;;;;;;;;5140231;27;10214;-88
2022/06/16 03:14:28;;;;;;;;;15.50;14.00;;;;;;;;5140313;27;12761;-88
2022/06/16 03:16:53;;;;;;;;;12.00;11.00;;;;;;;;5140891;27;11381;-86
2022/06/16 03:19:20;;;;;;;;;18.00;17.00;;;;;;;;5141580;27;10844;-86
2022/06/16 03:21:45;;;;;;;;;13.50;12.50;;;;;;;;5140924;27;9901;-86
2022/06/16 03:24:11;;;;;;;;;13.25;13.00;;;;;;;;5138660;27;14760;-86
2022/06/16 03:26:36;;;;;;;;;16.25;14.25;;;;;;;;5141014;27;10380;-86
2022/06/16 03:29:01;;;;;;;;;14.75;14.75;;;;;;;;5140481;27;11809;-86
2022/06/16 03:31:26;;;;;;;;;17.50;13.25;;;;;;;;5140119;27;10338;-85
2022/06/16 03:33:52;;;;;;;;;15.25;15.25;;;;;;;;5138328;27;11068;-85
2022/06/16 03:36:17;;;;;;;;;13.00;13.00;;;;;;;;5140181;27;10359;-83
2022/06/16 03:38:43;;;;;;;;;15.50;15.50;;;;;;;;5140577;27;11370;-83
2022/06/16 03:41:09;;;;;;;;;19.75;19.50;;;;;;;;5141114;27;11798;-83
2022/06/16 03:43:34;;;;;;;;;15.00;13.50;;;;;;;;5140000;27;10534;-84
2022/06/16 03:46:00;;;;;;;;;18.25;13.50;;;;;;;;5138667;27;12891;-83
2022/06/16 03:48:25;;;;;;;;;14.25;14.00;;;;;;;;5140491;27;8996;-84
2022/06/16 03:50:50;;;;;;;;;18.75;16.75;;;;;;;;5140295;27;11682;-83
2022/06/16 03:53:16;;;;;;;;;17.75;15.00;;;;;;;;5140098;27;11444;-81
2022/06/16 03:55:41;;;;;;;;;15.00;14.50;;;;;;;;5140122;27;12490;-83
2022/06/16 03:58:07;;;;;;;;;13.50;13.50;;;;;;;;5138336;27;11789;-83
2022/06/16 04:00:32;;;;;;;;;18.00;17.00;;;;;;;;5140020;27;10463;-83
2022/06/16 04:05:42;;;;;;;;;13.00;13.00;;;;;;;;5139635;27;11424;-83
2022/06/16 04:08:07;;;;;;;;;14.00;12.75;;;;;;;;5138030;27;11132;-83
2022/06/16 04:10:33;;;;;;;;;13.25;12.25;;;;;;;;5138743;27;11868;-84
2022/06/16 04:12:58;;;;;;;;;12.25;11.50;;;;;;;;5140617;27;10859;-84
2022/06/16 04:15:23;;;;;;;;;15.00;13.00;;;;;;;;5139969;27;11346;-83
2022/06/16 04:17:48;;;;;;;;;14.00;14.00;;;;;;;;5140062;27;11552;-84
2022/06/16 04:20:14;;;;;;;;;13.25;13.25;;;;;;;;5139939;27;8926;-87
2022/06/16 04:22:40;;;;;;;;;15.75;13.00;;;;;;;;5139759;27;11529;-87
2022/06/16 04:25:06;;;;;;;;;17.25;17.25;;;;;;;;5140279;27;13525;-86
2022/06/16 04:27:31;;;;;;;;;18.25;15.75;;;;;;;;5142944;27;11729;-84
2022/06/16 04:29:57;;;;;;;;;14.00;14.00;;;;;;;;5143054;27;11178;-83
2022/06/16 04:32:22;;;;;;;;;19.50;16.00;;;;;;;;5143011;27;12451;-86
2022/06/16 04:34:48;;;;;;;;;16.75;15.25;;;;;;;;5143721;27;10333;-86
2022/06/16 04:37:14;;;;;;;;;14.75;14.75;;;;;;;;5143230;27;11546;-84
2022/06/16 04:39:39;;;;;;;;;16.25;14.00;;;;;;;;5143449;27;10857;-84
2022/06/16 04:42:04;;;;;;;;;19.00;17.75;;;;;;;;5143044;27;11371;-84
2022/06/16 04:44:31;;;;;;;;;18.75;18.00;;;;;;;;5142783;27;12717;-84
2022/06/16 04:46:57;;;;;;;;;15.50;14.50;;;;;;;;5142755;27;12198;-84
2022/06/16 04:49:22;;;;;;;;;16.00;16.00;;;;;;;;5143492;27;11357;-83
2022/06/16 04:51:47;;;;;;;;;14.00;14.00;;;;;;;;5143508;27;11654;-84
2022/06/16 04:54:12;;;;;;;;;15.75;14.00;;;;;;;;5143602;27;8792;-84
2022/06/16 04:56:38;;;;;;;;;17.25;15.50;;;;;;;;5143329;27;8984;-84
2022/06/16 04:59:03;;;;;;;;;15.00;15.00;;;;;;;;5143070;27;11418;-84
2022/06/16 05:01:28;;;;;;;;;17.00;15.25;;;;;;;;5143452;27;11555;-84
2022/06/16 05:03:54;;;;;;;;;16.50;16.50;;;;;;;;5142416;27;11881;-85
2022/06/16 05:06:19;;;;;;;;;16.25;15.00;;;;;;;;5143066;27;11524;-84
2022/06/16 05:08:44;;;;;;;;;20.50;18.00;;;;;;;;5141971;27;10320;-87
2022/06/16 05:11:10;;;;;;;;;19.75;18.50;;;;;;;;5142694;27;12194;-85
2022/06/16 05:13:35;;;;;;;;;11.00;10.25;;;;;;;;5140587;27;16685;-84
2022/06/16 05:16:00;;;;;;;;;14.00;14.00;;;;;;;;5142288;27;11418;-84
2022/06/16 05:18:26;;;;;;;;;15.25;15.25;;;;;;;;5142399;27;11362;-84
2022/06/16 05:20:51;;;;;;;;;17.50;16.25;;;;;;;;5141885;27;12037;-84
2022/06/16 05:23:16;;;;;;;;;18.00;17.75;;;;;;;;5142144;27;10378;-84
2022/06/16 05:25:42;;;;;;;;;20.00;17.50;;;;;;;;5142841;27;10332;-84
2022/06/16 05:28:07;;;;;;;;;17.00;13.00;;;;;;;;5142417;27;13277;-87
2022/06/16 05:30:33;;;;;;;;;19.00;16.25;;;;;;;;5142671;27;13510;-84
2022/06/16 05:32:58;;;;;;;;;20.75;18.00;;;;;;;;5141663;27;11404;-84
2022/06/16 05:35:24;;;;;;;;;17.75;17.75;;;;;;;;5142193;27;13385;-84
2022/06/16 05:37:49;;;;;;;;;12.75;12.75;;;;;;;;5142080;27;13187;-84
2022/06/16 05:40:14;;;;;;;;;19.75;19.75;;;;;;;;5141992;27;8841;-83
2022/06/16 05:42:41;;;;;;;;;18.25;16.00;;;;;;;;5141296;27;8831;-84
2022/06/16 05:45:06;;;;;;;;;20.50;19.50;;;;;;;;5140027;27;11799;-82
2022/06/16 05:47:32;;;;;;;;;20.75;20.00;;;;;;;;5142601;27;13514;-84
2022/06/16 05:49:58;;;;;;;;;26.50;23.25;;;;;;;;5141139;27;12185;-76
2022/06/16 05:52:23;;;;;;;;;21.00;19.00;;;;;;;;5141613;27;11546;-76
2022/06/16 05:54:48;;;;;;;;;18.50;17.75;;;;;;;;5141842;27;12711;-78
2022/06/16 05:57:14;;;;;;;;;19.50;17.50;;;;;;;;5141795;27;13252;-77
2022/06/16 05:59:39;;;;;;;;;18.25;17.50;;;;;;;;5141910;27;11609;-77
2022/06/16 06:02:05;;;;;;;;;18.25;17.50;;;;;;;;5141610;27;9542;-75
2022/06/16 06:04:32;;;;;;;;;21.75;20.75;;;;;;;;5140379;27;8784;-76
2022/06/16 06:06:58;;;;;;;;;24.00;20.75;;;;;;;;5129100;27;13301;-77
2022/06/16 06:17:38;;;;;;;;;22.25;21.50;;;;;;;;5124441;27;10934;-75
2022/06/16 06:20:04;;;;;;;;;20.50;20.00;;;;;;;;5160454;27;10629;-75
2022/06/16 06:22:29;;;;;;;;;27.00;27.00;;;;;;;;5161921;27;11723;-75
2022/06/16 06:24:57;;;;;;;;;24.25;24.25;;;;;;;;5160358;27;12410;-75
2022/06/16 06:27:22;;;;;;;;;30.75;30.00;;;;;;;;5161233;27;11521;-75
2022/06/16 06:29:48;;;;;;;;;27.00;26.75;;;;;;;;5161873;27;14352;-75
2022/06/16 06:32:15;;;;;;;;;22.75;21.25;;;;;;;;5160854;27;14667;-75
2022/06/16 06:34:41;;;;;;;;;36.25;31.25;;;;;;;;5160351;27;12964;-76
2022/06/16 06:37:06;;;;;;;;;47.25;36.25;;;;;;;;5161461;27;11381;-77
2022/06/16 06:39:32;;;;;;;;;28.00;24.75;;;;;;;;5161427;27;10521;-79
2022/06/16 06:41:57;;;;;;;;;27.00;25.25;;;;;;;;5153387;27;12557;-79
2022/06/16 06:44:23;;;;;;;;;24.75;23.25;;;;;;;;5135843;27;10866;-77
2022/06/16 06:46:48;;;;;;;;;41.25;36.25;;;;;;;;5137625;27;10429;-75
2022/06/16 06:49:14;;;;;;;;;37.50;34.25;;;;;;;;5137206;27;11379;-76
2022/06/16 06:51:39;;;;;;;;;25.50;23.25;;;;;;;;5131744;27;12646;-82
2022/06/16 06:54:05;;;;;;;;;21.25;20.75;;;;;;;;5134906;27;10648;-79
2022/06/16 06:56:31;;;;;;;;;22.75;22.50;;;;;;;;5137418;27;10522;-80
2022/06/16 06:58:58;;;;;;;;;24.25;23.50;;;;;;;;5137481;27;11835;-80
2022/06/16 07:01:23;;;;;;;;;23.50;23.50;;;;;;;;5136723;27;11062;-80
2022/06/16 07:03:50;;;;;;;;;24.25;23.00;;;;;;;;5129547;27;10170;-82
2022/06/16 07:06:16;;;;;;;;;24.00;22.75;;;;;;;;5138446;27;11730;-74
2022/06/16 07:08:41;;;;;;;;;49.50;39.00;;;;;;;;5138407;27;10968;-83
2022/06/16 07:11:06;;;;;;;;;27.00;25.25;;;;;;;;5138387;27;13537;-79
2022/06/16 07:13:33;;;;;;;;;39.50;35.50;;;;;;;;5138030;27;13531;-80
2022/06/16 07:15:58;;;;;;;;;22.50;20.25;;;;;;;;5137271;27;13498;-81
2022/06/16 07:18:23;;;;;;;;;32.25;30.50;;;;;;;;5136949;27;13224;-79
2022/06/16 07:20:51;;;;;;;;;53.00;41.25;;;;;;;;5138439;27;13279;-80
2022/06/16 07:23:18;;;;;;;;;29.25;23.75;;;;;;;;5137692;27;15799;-77
2022/06/16 07:25:44;;;;;;;;;48.50;38.75;;;;;;;;5145678;27;12517;-80
2022/06/16 07:28:09;;;;;;;;;26.50;26.50;;;;;;;;5159959;27;12380;-80
2022/06/16 07:30:35;;;;;;;;;29.50;27.25;;;;;;;;5160030;27;13375;-80
2022/06/16 07:33:00;;;;;;;;;24.50;23.25;;;;;;;;5159142;27;13642;-80
2022/06/16 07:35:25;;;;;;;;;19.00;18.33;;;;;;;;5161035;27;8785;-80
2022/06/16 07:37:50;;;;;;;;;20.33;20.33;;;;;;;;5160985;27;12411;-78
2022/06/16 07:40:17;;;;;;;;;38.00;32.50;;;;;;;;5159269;27;14312;-79
2022/06/16 07:42:45;;;;;;;;;35.50;31.50;;;;;;;;5159885;27;14954;-82
2022/06/16 07:45:10;;;;;;;;;20.67;20.00;;;;;;;;5161371;27;10929;-79
2022/06/16 07:47:35;;;;;;;;;23.25;21.00;;;;;;;;5159169;27;15480;-73
2022/06/16 07:50:03;;;;;;;;;22.00;21.00;;;;;;;;5160393;27;10344;-74
2022/06/16 07:52:29;;;;;;;;;38.00;33.00;;;;;;;;5159170;27;8761;-76
2022/06/16 07:54:54;;;;;;;;;26.00;23.67;;;;;;;;5137146;27;10928;-73
2022/06/16 07:57:21;;;;;;;;;27.67;26.33;;;;;;;;5139208;27;13287;-73
2022/06/16 07:59:49;;;;;;;;;26.00;24.00;;;;;;;;5139557;27;11496;-77
2022/06/16 08:02:14;;;;;;;;;30.67;29.67;;;;;;;;5138085;27;11604;-76
2022/06/16 08:04:39;;;;;;;;;21.33;20.67;;;;;;;;5138170;27;13455;-76
2022/06/16 08:07:05;;;;;;;;;22.00;22.00;;;;;;;;5136732;27;15277;-76
2022/06/16 08:09:33;;;;;;;;;23.33;23.00;;;;;;;;5137638;27;11529;-75
2022/06/16 08:12:07;;;;;;;;;25.50;21.50;;;;;;;;5138283;27;10441;-75
2022/06/16 08:14:36;;;;;;;;;39.00;33.75;;;;;;;;5139256;27;12114;-78
2022/06/16 08:17:02;;;;;;;;;29.33;28.33;;;;;;;;5137857;27;13881;-76
2022/06/16 08:19:28;;;;;;;;;24.75;22.25;;;;;;;;5138533;27;12292;-76
2022/06/16 08:21:53;;;;;;;;;17.00;17.00;;;;;;;;5139534;27;9519;-76
2022/06/16 08:24:18;;;;;;;;;36.75;32.00;;;;;;;;5139076;27;13225;-76
2022/06/16 08:26:46;;;;;;;;;30.33;28.67;;;;;;;;5139309;27;12720;-76
2022/06/16 08:29:13;;;;;;;;;38.67;33.00;;;;;;;;5139430;27;12318;-76
2022/06/16 08:31:38;;;;;;;;;20.75;20.50;;;;;;;;5139238;27;12453;-76
2022/06/16 08:34:03;;;;;;;;;36.00;31.00;;;;;;;;5138937;27;13432;-76
2022/06/16 08:36:29;;;;;;;;;17.00;16.67;;;;;;;;5139064;27;13389;-76
2022/06/16 08:38:54;;;;;;;;;34.33;31.00;;;;;;;;5138902;27;13263;-76
2022/06/16 08:41:25;;;;;;;;;34.33;30.67;;;;;;;;5138988;27;13529;-76
2022/06/16 08:44:06;;;;;;;;;19.75;17.50;;;;;;;;5139520;27;9024;-76
2022/06/16 08:46:36;;;;;;;;;15.25;13.00;;;;;;;;5139521;27;14821;-76
2022/06/16 08:49:20;;;;;;;;;25.00;24.75;;;;;;;;5139237;27;12085;-76
2022/06/16 08:52:04;;;;;;;;;30.50;29.00;;;;;;;;5138208;27;13533;-77
2022/06/16 08:54:40;;;;;;;;;30.25;29.25;;;;;;;;5138642;27;13982;-74
2022/06/16 08:57:24;;;;;;;;;19.25;18.00;;;;;;;;5137584;27;9341;-76
2022/06/16 08:59:53;;;;;;;;;30.67;30.00;;;;;;;;5138763;27;14614;-77
2022/06/16 09:02:37;;;;;;;;;31.33;29.00;;;;;;;;5139060;27;12868;-77
2022/06/16 09:05:08;;;;;;;;;13.50;13.50;;;;;;;;5139174;27;12745;-77
2022/06/16 09:07:37;;;;;;;;;31.33;29.33;;;;;;;;5138590;27;13300;-78
2022/06/16 09:10:17;;;;;;;;;22.00;21.50;;;;;;;;5139155;27;13302;-77
2022/06/16 09:12:48;;;;;;;;;30.67;28.33;;;;;;;;5140726;27;13369;-76
2022/06/16 09:15:22;;;;;;;;;29.33;28.00;;;;;;;;5139305;27;13983;-76
2022/06/16 09:17:50;;;;;;;;;29.00;28.00;;;;;;;;5141991;27;13859;-76
2022/06/16 09:20:21;;;;;;;;;34.67;31.00;;;;;;;;5141668;27;8917;-76
2022/06/16 09:22:59;;;;;;;;;16.75;16.25;;;;;;;;5141367;27;13768;-76
2022/06/16 09:25:39;;;;;;;;;32.25;30.00;;;;;;;;5142129;27;13599;-74
2022/06/16 09:28:09;;;;;;;;;28.00;27.33;;;;;;;;5153258;27;13483;-75
2022/06/16 09:30:37;;;;;;;;;20.25;19.75;;;;;;;;5161700;27;13484;-80
2022/06/16 09:33:08;;;;;;;;;13.50;13.50;;;;;;;;5143986;27;11451;-73
2022/06/16 09:36:05;;;;;;;;;14.75;13.00;;;;;;;;5140099;27;13315;-74
2022/06/16 09:38:36;;;;;;;;;15.00;14.00;;;;;;;;5052495;28;11452;-74
2022/06/16 09:42:32;;;;;;;;;29.33;28.33;;;;;;;;5056524;28;10451;-75
2022/06/16 09:43:54;;;;;;;;;14.00;13.75;;;;;;;;5054934;28;13671;-76
2022/06/16 09:46:22;;;;;;;;;12.75;11.00;;;;;;;;5052822;28;13554;-76
2022/06/16 09:48:52;;;;;;;;;13.75;13.75;;;;;;;;5115154;27;11806;-73
2022/06/16 09:51:21;;;;;;;;;13.50;13.50;;;;;;;;5138035;27;11884;-73
2022/06/16 09:53:46;;;;;;;;;26.25;23.50;;;;;;;;5138512;27;8917;-73
2022/06/16 09:56:17;;;;;;;;;23.33;23.33;;;;;;;;5137565;27;12830;-76
2022/06/16 09:58:46;;;;;;;;;24.25;24.25;;;;;;;;5141143;27;11610;-79
2022/06/16 10:01:13;;;;;;;;;16.50;16.00;;;;;;;;5141141;27;9415;-80
2022/06/16 10:03:41;;;;;;;;;13.00;12.00;;;;;;;;5140184;27;13624;-76
2022/06/16 10:06:16;;;;;;;;;15.25;14.25;;;;;;;;5141252;27;10492;-79
2022/06/16 10:08:47;;;;;;;;;12.00;11.50;;;;;;;;5139879;27;12002;-76
2022/06/16 10:11:19;;;;;;;;;12.00;11.50;;;;;;;;5137638;27;13244;-77
2022/06/16 10:13:52;;;;;;;;;12.75;12.75;;;;;;;;5141151;27;8795;-78
2022/06/16 10:16:19;;;;;;;;;9.00;9.00;;;;;;;;5138671;27;10966;-79
2022/06/16 10:18:44;;;;;;;;;18.75;18.75;;;;;;;;5138507;27;23973;-86
2022/06/16 10:21:11;;;;;;;;;35.33;31.33;;;;;;;;5138454;27;24700;-90
2022/06/16 10:23:38;;;;;;;;;26.00;26.00;;;;;;;;5138797;27;13513;-75
2022/06/16 10:26:05;;;;;;;;;12.25;11.00;;;;;;;;5138200;27;13318;-75
2022/06/16 10:28:38;;;;;;;;;13.00;12.50;;;;;;;;5134678;27;12340;-74
2022/06/16 10:31:04;;;;;;;;;31.00;28.00;;;;;;;;5140605;27;12536;-74
2022/06/16 10:33:33;;;;;;;;;27.00;27.00;;;;;;;;5140711;27;13402;-75
2022/06/16 10:35:58;;;;;;;;;25.00;25.00;;;;;;;;5140908;27;11439;-75
2022/06/16 10:38:29;;;;;;;;;24.00;22.67;;;;;;;;5138610;27;9293;-74
2022/06/16 10:40:55;;;;;;;;;22.50;22.50;;;;;;;;5139524;27;11470;-74
2022/06/16 10:43:22;;;;;;;;;13.25;13.25;;;;;;;;5139950;27;11497;-75
2022/06/16 10:45:55;;;;;;;;;18.33;18.00;;;;;;;;5140072;27;14577;-75
2022/06/16 10:48:37;;;;;;;;;18.00;18.00;;;;;;;;5137517;27;11706;-75
2022/06/16 10:51:07;;;;;;;;;12.25;12.25;;;;;;;;5138654;27;8788;-75
2022/06/16 10:53:35;;;;;;;;;13.25;13.00;;;;;;;;5140047;27;11471;-75
2022/06/16 10:56:06;;;;;;;;;27.50;27.25;;;;;;;;5140175;27;11507;-75
2022/06/16 10:58:33;;;;;;;;;24.75;22.00;;;;;;;;5139562;27;13330;-75
2022/06/16 11:01:06;;;;;;;;;23.00;23.00;;;;;;;;5140561;27;11816;-75
2022/06/16 11:03:40;;;;;;;;;22.00;22.00;;;;;;;;5136333;27;10653;-75
2022/06/16 11:06:06;;;;;;;;;22.75;22.75;;;;;;;;5139794;27;9481;-73
2022/06/16 11:08:35;;;;;;;;;15.75;15.75;;;;;;;;5140681;27;9618;-75
2022/06/16 11:11:01;;;;;;;;;29.00;26.75;;;;;;;;5140858;27;10480;-74
2022/06/16 11:13:31;;;;;;;;;32.25;30.00;;;;;;;;5139004;27;12792;-75
2022/06/16 11:15:57;;;;;;;;;29.25;28.75;;;;;;;;5139328;27;13800;-76
2022/06/16 11:18:25;;;;;;;;;24.75;24.00;;;;;;;;5134303;27;13221;-75
2022/06/16 11:20:52;;;;;;;;;22.33;19.33;;;;;;;;5129286;27;11594;-73
2022/06/16 11:23:19;;;;;;;;;34.00;31.00;;;;;;;;5129430;27;12816;-74
2022/06/16 11:25:45;;;;;;;;;19.67;18.00;;;;;;;;5129589;27;13541;-75
2022/06/16 11:28:10;;;;;;;;;26.50;24.75;;;;;;;;5128258;27;12660;-75
2022/06/16 11:30:51;;;;;;;;;33.00;30.00;;;;;;;;5129767;27;15448;-75
2022/06/16 11:36:22;;;;;;;;;19.00;17.67;;;;;;;;5129382;27;12233;-75
2022/06/16 11:38:55;;;;;;;;;19.00;18.67;;;;;;;;5131563;27;11782;-74
2022/06/16 11:41:23;;;;;;;;;25.67;25.33;;;;;;;;5137745;27;8935;-74
2022/06/16 11:44:00;;;;;;;;;14.67;14.00;;;;;;;;5137796;27;13482;-75
2022/06/16 11:46:32;;;;;;;;;22.67;22.00;;;;;;;;5135605;27;13413;-75
2022/06/16 11:49:01;;;;;;;;;28.75;27.50;;;;;;;;5137662;27;10761;-74
2022/06/16 11:51:38;;;;;;;;;13.75;13.75;;;;;;;;5137895;27;11454;-74
2022/06/16 11:54:09;;;;;;;;;15.25;14.25;;;;;;;;5137211;27;13515;-75
2022/06/16 11:56:53;;;;;;;;;33.00;30.00;;;;;;;;5137184;27;10593;-74
2022/06/16 11:59:31;;;;;;;;;13.75;13.50;;;;;;;;5136949;27;14490;-74
2022/06/16 12:02:15;;;;;;;;;15.00;14.75;;;;;;;;5137697;27;13275;-73
2022/06/16 12:04:41;;;;;;;;;15.25;15.25;;;;;;;;5136517;27;12712;-80
2022/06/16 12:07:18;;;;;;;;;26.50;26.25;;;;;;;;5136211;27;9834;-84
2022/06/16 12:09:58;;;;;;;;;17.00;16.67;;;;;;;;5133566;27;12461;-81
2022/06/16 12:12:32;;;;;;;;;16.00;15.50;;;;;;;;5134565;27;13584;-80
2022/06/16 12:15:07;;;;;;;;;17.50;17.50;;;;;;;;5136350;27;11697;-82
2022/06/16 12:17:35;;;;;;;;;17.00;15.67;;;;;;;;5137821;27;10451;-81
2022/06/16 12:20:04;;;;;;;;;19.67;19.67;;;;;;;;5139090;27;10392;-80
2022/06/16 12:22:33;;;;;;;;;15.00;13.25;;;;;;;;5139073;27;10447;-81
2022/06/16 12:25:07;;;;;;;;;19.00;18.33;;;;;;;;5139400;27;11584;-80
2022/06/16 12:27:53;;;;;;;;;14.25;14.25;;;;;;;;5139459;27;9263;-79
2022/06/16 12:30:21;;;;;;;;;19.33;18.33;;;;;;;;5125816;27;10433;-78
2022/06/16 12:33:02;;;;;;;;;16.00;14.00;;;;;;;;5137051;27;9274;-80
2022/06/16 12:35:32;;;;;;;;;27.75;25.00;;;;;;;;5119403;27;11429;-81
2022/06/16 12:38:01;;;;;;;;;27.50;25.75;;;;;;;;5126557;27;12313;-79
2022/06/16 12:40:33;;;;;;;;;23.25;22.75;;;;;;;;5138615;27;9418;-77
2022/06/16 12:43:04;;;;;;;;;24.00;24.00;;;;;;;;5138538;27;10622;-81
2022/06/16 12:45:35;;;;;;;;;18.33;18.33;;;;;;;;5139992;27;11495;-83
2022/06/16 12:48:03;;;;;;;;;25.50;24.50;;;;;;;;5141947;27;13371;-86
2022/06/16 12:50:38;;;;;;;;;24.00;23.00;;;;;;;;5141598;27;13449;-86
2022/06/16 12:53:24;;;;;;;;;18.67;18.67;;;;;;;;5140325;27;12191;-88
2022/06/16 12:55:59;;;;;;;;;17.00;16.67;;;;;;;;5140942;27;13349;-87
2022/06/16 12:58:28;;;;;;;;;28.25;25.75;;;;;;;;5141717;27;10427;-88
2022/06/16 13:00:55;;;;;;;;;34.25;31.75;;;;;;;;5138813;27;13518;-85
2022/06/16 13:03:28;;;;;;;;;33.00;31.00;;;;;;;;5141050;27;10746;-78
2022/06/16 13:05:56;;;;;;;;;16.33;14.67;;;;;;;;5139008;27;12240;-78
2022/06/16 13:08:23;;;;;;;;;19.33;16.67;;;;;;;;5142493;27;13325;-78
2022/06/16 13:10:54;;;;;;;;;19.00;19.00;;;;;;;;5139998;27;9547;-78
2022/06/16 13:13:24;;;;;;;;;23.67;22.00;;;;;;;;5139137;27;10415;-78
2022/06/16 13:15:53;;;;;;;;;19.25;19.00;;;;;;;;5141065;27;13019;-79
2022/06/16 13:18:21;;;;;;;;;19.00;17.50;;;;;;;;5141045;27;12325;-80
2022/06/16 13:20:52;;;;;;;;;27.00;24.00;;;;;;;;5141827;27;10466;-80
2022/06/16 13:23:28;;;;;;;;;16.67;16.00;;;;;;;;5141162;27;13617;-79
2022/06/16 13:25:55;;;;;;;;;28.00;26.00;;;;;;;;5140034;27;13875;-79
2022/06/16 13:28:23;;;;;;;;;26.25;24.25;;;;;;;;5139786;27;12524;-80
2022/06/16 13:31:08;;;;;;;;;21.67;21.33;;;;;;;;5139603;27;11507;-78
2022/06/16 13:34:09;;;;;;;;;27.75;26.25;;;;;;;;5093224;27;11648;-90
2022/06/16 13:36:34;;;;;;;;;13.00;13.00;;;;;;;;5138946;27;10491;-88
2022/06/16 13:39:01;;;;;;;;;27.25;26.50;;;;;;;;5140022;27;13724;-80
2022/06/16 13:41:35;;;;;;;;;33.25;28.50;;;;;;;;5138167;27;15838;-78
2022/06/16 13:44:08;;;;;;;;;19.00;18.25;;;;;;;;5139473;27;11204;-75
2022/06/16 13:46:53;;;;;;;;;72.67;62.33;;;;;;;;5139543;27;14427;-75
2022/06/16 13:49:25;;;;;;;;;52.00;43.75;;;;;;;;5139239;27;12303;-75
2022/06/16 13:51:52;;;;;;;;;25.25;22.75;;;;;;;;5139022;27;12468;-73
2022/06/16 13:54:27;;;;;;;;;22.50;21.75;;;;;;;;5139080;27;13644;-74
2022/06/16 13:56:53;;;;;;;;;19.67;16.33;;;;;;;;5138248;27;11163;-73
2022/06/16 13:59:29;;;;;;;;;15.33;14.33;;;;;;;;5139894;27;12232;-74
2022/06/16 14:02:03;;;;;;;;;15.33;14.33;;;;;;;;5136848;27;10628;-74
2022/06/16 14:04:29;;;;;;;;;21.75;19.75;;;;;;;;5137925;27;9136;-74
2022/06/16 14:07:00;;;;;;;;;19.00;19.00;;;;;;;;5139591;27;12848;-75
2022/06/16 14:09:57;;;;;;;;;17.25;16.00;;;;;;;;5134270;27;13272;-74
2022/06/16 14:12:43;;;;;;;;;19.25;17.75;;;;;;;;5051346;28;10443;-73
2022/06/16 14:15:09;;;;;;;;;14.25;14.25;;;;;;;;5052323;28;11515;-74
2022/06/16 14:17:37;;;;;;;;;13.67;12.00;;;;;;;;5055839;28;10511;-74
2022/06/16 14:20:08;;;;;;;;;13.75;13.00;;;;;;;;5055104;28;11446;-75
2022/06/16 14:22:36;;;;;;;;;19.50;18.00;;;;;;;;5110797;27;9810;-83
2022/06/16 14:25:09;;;;;;;;;19.50;17.25;;;;;;;;5139702;27;10425;-77
2022/06/16 14:27:43;;;;;;;;;18.50;14.00;;;;;;;;5139677;27;9600;-79
2022/06/16 14:30:09;;;;;;;;;16.50;14.25;;;;;;;;5138320;27;13375;-77
2022/06/16 14:32:44;;;;;;;;;14.00;12.00;;;;;;;;5138800;27;11552;-78
2022/06/16 14:35:19;;;;;;;;;17.50;16.50;;;;;;;;5139567;27;11456;-78
2022/06/16 14:38:03;;;;;;;;;18.75;17.50;;;;;;;;5139450;27;11627;-79
2022/06/16 20:26:14;;;;;;;;;2.67;2.67;;;;;;;;5170628;27;78698;-80
2022/06/16 20:28:41;;;;;;;;;3.00;3.00;;;;;;;;5157113;27;20664;-81
2022/06/16 20:31:06;;;;;;;;;3.50;2.75;;;;;;;;5154943;27;13058;-86